Airfield :
LOGIN :

Register | Disclaimer

   EN    FR    IT 

 










Legend :    VFR   Marginal VFR   IFR   Intensive IFR   Very Intensive IFR
Visi :
Ceiling :
>= 8 km
>= 3000ft
5 to 8 km
1000 to 3000 ft
1500m to 5 km
500 to 1000 ft
800 to 1500m
200 to 500 ft
< 800m
< 200 ft
Symbols :   Thunderstorms  Fog  Heavy snow  Heavy precipitations  Wind > 20 kt
SIGMETs :     Misc.  Thunderstorms  Icing  Turbulence  Mountain Waves  Volcanic Ashes






- Airport Elevation : 512 ft
- IATA code : URO


LFOP - Rouen Vallée de Seine

CURRENT METAR :
  • 151300Z AUTO 23014KT 9999 BKN033 OVC039 15/09 Q1007 TEMPO 20015G25KT 3000 SHRA BKN012TCU

EXPIRED METARs :
  • 151230Z AUTO 21011KT 9999 BKN027 OVC130 16/10 Q1007 TEMPO 20015G25KT 3000 SHRA BKN012TCU
  • 151200Z AUTO 22009KT 9999 FEW024 OVC160 15/10 Q1007 NOSIG
  • 151130Z AUTO 22012KT 9999 BKN023 BKN028 BKN160 15/10 Q1007 NOSIG
  • 151100Z AUTO 21011KT 9999 BKN020 OVC110 15/10 Q1007 NOSIG
  • 151030Z AUTO 23011KT 9999 OVC019 14/11 Q1007 NOSIG

TAF TAF LFOP
Valid from the 15 at 12:00 until the 16 at 12:00 UTC


151100Z 1512/1612 22009KT 9999 BKN020
TEMPO 1514/1518 20015G25KT 3000 SHRA BKN012TCU
BECMG 1521/1524 16015KT
TEMPO 1600/1612 16017G27KT 3000 RADZ BKN006 OVC013
ATIS : +33 2 35 80 80 34
Met : +33 2 32 86 52 80



MET'MAP, your aeronautical weather chart ! - Copyright ORBIFLY December 2007 - Disclaimer

ORBIFLY MET'MAP TEAM :

Programming & Development : Alexandra Zaïnal
Concept & Development : Baudouin d'Aumeries
Co-Development & Prog : Marc-Olivier Méhu
Technical & hardware support : Manuel Goepfert

Contact : metmap@orbifly.com




SOURCES & CREDITS :

   NOAA